Coral Topaz — 3ELB7 — position and weather

sailwx.info

Track history (hours):
 
Tides and Currents Weather Stations Pressure Air Temp Water Temp Dewpoint Dewpoint Depression Visibility Wind Speed Wind Dir Waves Ship Positions

Coral Topaz

Last reported at 2016-Apr-19 04:33 UTC. Time now 2016-May-01 09:58 UTC.
Position S 32°40' E 152°26'.
Warning: this ship's position is 12 days out of date.

Length 225 m; draft 12.7 m.

Type: Ship. MMSI: 372904000.

Date/timePositionNaut miles runAvg speedWind from/ knotsBaromVisibWave heightAir tempDewpointWater temp
2016-Apr-19 04:33S 32°40' E 152°26'1313.4
2016-Apr-19 03:33S 32°50' E 152°14'1312.7
2016-Apr-19 02:33S 32°57' E 152°02'1110.6
2016-Apr-19 01:33S 32°56' E 151°49'3 3.2
2016-Apr-19 00:33S 32°54' E 151°46'0 0.1
2016-Apr-18 23:33S 32°54' E 151°46'0 0.0
2016-Apr-18 22:33S 32°54' E 151°46'0 0.0
2016-Apr-18 21:30S 32°54' E 151°46'0 0.0
2016-Apr-18 20:33S 32°54' E 151°46'0 0.0
2016-Apr-18 19:30S 32°54' E 151°46'0 0.1
2016-Apr-18 18:30S 32°54' E 151°46'0 0.1
2016-Apr-18 17:33S 32°54' E 151°46'0 0.1
2016-Apr-18 16:33S 32°54' E 151°46'0 0.0
2016-Apr-18 15:30S 32°54' E 151°46'0 0.0
2016-Apr-18 14:24S 32°54' E 151°46'0 0.0
2016-Apr-18 13:12S 32°54' E 151°46'0 0.0
2016-Apr-18 12:27S 32°54' E 151°46'0 0.0
2016-Apr-18 11:27S 32°54' E 151°46'0 0.0
2016-Apr-18 10:33S 32°54' E 151°46'0 0.1
2016-Apr-18 09:33S 32°54' E 151°46'0 0.0
2016-Apr-18 08:24S 32°54' E 151°46'0 0.1
2016-Apr-18 07:33S 32°54' E 151°46'0 0.1
2016-Apr-18 06:33S 32°54' E 151°46'0 0.0
2016-Apr-18 05:33S 32°54' E 151°46'0 0.0
2016-Apr-18 04:33S 32°54' E 151°46'0 0.0
2016-Apr-18 03:30S 32°54' E 151°46'0 0.0
2016-Apr-18 02:27S 32°54' E 151°46'0 0.1
2016-Apr-18 01:33S 32°54' E 151°46'0 0.0
2016-Apr-18 00:33S 32°54' E 151°46'0 0.0
2016-Apr-17 23:31S 32°54' E 151°46'0 0.0
2016-Apr-17 22:31S 32°54' E 151°46'0 0.1
2016-Apr-17 21:33S 32°54' E 151°46'0 0.0
2016-Apr-17 20:33S 32°54' E 151°46'0 0.0
2016-Apr-17 19:31S 32°54' E 151°46'0 0.0
2016-Apr-17 18:31S 32°54' E 151°46'0 0.1
2016-Apr-17 17:33S 32°54' E 151°46'0 0.0
2016-Apr-17 16:33S 32°54' E 151°46'0 0.0
2016-Apr-17 15:33S 32°54' E 151°46'0 0.0
2016-Apr-17 14:34S 32°54' E 151°46'1 1.1
2016-Apr-17 13:34S 32°55' E 151°47'5 5.4
2016-Apr-17 12:34S 32°59' E 151°51'4 3.8
2016-Apr-17 11:31S 33°02' E 151°47'0 0.1
2016-Apr-17 10:32S 33°02' E 151°47'0 0.1
2016-Apr-17 09:32S 33°01' E 151°47'0 0.0
2016-Apr-17 08:31S 33°01' E 151°47'0 0.0
2016-Apr-17 07:31S 33°01' E 151°47'0 0.0
2016-Apr-17 06:31S 33°01' E 151°47'0 0.1
2016-Apr-17 05:32S 33°01' E 151°47'0 0.0
2016-Apr-17 04:32S 33°01' E 151°47'0 0.0
2016-Apr-17 03:31S 33°01' E 151°47'0 0.1
2016-Apr-17 02:31S 33°01' E 151°47'0 0.1
2016-Apr-17 01:31S 33°02' E 151°47'0 0.0
2016-Apr-17 00:28S 33°02' E 151°47'0 0.1
2016-Apr-16 23:31S 33°02' E 151°47'0 0.0
2016-Apr-16 22:31S 33°02' E 151°47'0 0.1
2016-Apr-16 21:31S 33°02' E 151°47'0 0.1
2016-Apr-16 20:28S 33°02' E 151°47'0 0.0
2016-Apr-16 19:31S 33°02' E 151°47'0 0.0
2016-Apr-16 18:32S 33°02' E 151°47'0 0.0
2016-Apr-16 17:31S 33°02' E 151°47'0 0.0
2016-Apr-16 16:32S 33°02' E 151°47'0 0.0
2016-Apr-16 15:32S 33°02' E 151°47'0 0.0
2016-Apr-16 14:31S 33°02' E 151°47'0 0.0
2016-Apr-16 13:33S 33°02' E 151°47'0 0.0
2016-Apr-16 12:31S 33°02' E 151°47'0 0.1
2016-Apr-16 11:31S 33°02' E 151°47'0 0.1
2016-Apr-16 10:32S 33°02' E 151°47'0 0.0
2016-Apr-16 09:28S 33°02' E 151°47'0 0.0
2016-Apr-16 08:28S 33°02' E 151°47'0 0.1
2016-Apr-16 07:33S 33°02' E 151°47'0 0.0
2016-Apr-16 06:33S 33°02' E 151°47'0 0.0
2016-Apr-16 05:33S 33°02' E 151°47'0 0.0
2016-Apr-16 04:33S 33°02' E 151°47'0 0.0
2016-Apr-16 03:33S 33°02' E 151°47'0 0.0
2016-Apr-16 02:33S 33°02' E 151°47'0 0.0
2016-Apr-16 01:33S 33°02' E 151°47'0 0.1
2016-Apr-16 00:33S 33°02' E 151°47'0 0.0
2016-Apr-15 23:33S 33°02' E 151°47'0 0.0
2016-Apr-15 22:33S 33°02' E 151°47'0 0.1
2016-Apr-15 21:33S 33°02' E 151°47'0 0.1
2016-Apr-15 20:31S 33°02' E 151°47'0 0.1
2016-Apr-15 19:33S 33°02' E 151°47'0 0.1
2016-Apr-15 18:33S 33°02' E 151°47'0 0.0
2016-Apr-15 17:31S 33°02' E 151°47'0 0.1
2016-Apr-15 16:33S 33°02' E 151°47'0 0.1
2016-Apr-15 15:29S 33°02' E 151°47'0 0.0
2016-Apr-15 14:32S 33°02' E 151°47'0 0.0
2016-Apr-15 13:29S 33°02' E 151°47'0 0.1
2016-Apr-15 12:33S 33°02' E 151°47'0 0.0
2016-Apr-15 11:29S 33°02' E 151°47'0 0.0
2016-Apr-15 10:31S 33°02' E 151°47'0 0.1
2016-Apr-15 09:32S 33°02' E 151°47'0 0.1
2016-Apr-15 08:32S 33°02' E 151°47'0 0.1
2016-Apr-15 07:31S 33°02' E 151°47'0 0.0
2016-Apr-15 06:32S 33°02' E 151°47'0 0.0
2016-Apr-15 05:31S 33°02' E 151°47'0 0.0
2016-Apr-15 04:31S 33°02' E 151°47'0 0.0
2016-Apr-15 03:31S 33°02' E 151°47'0 0.0
2016-Apr-15 02:31S 33°02' E 151°47'0 0.0
2016-Apr-15 01:31S 33°02' E 151°47'0 0.0
2016-Apr-15 00:31S 33°02' E 151°47'0 0.1
2016-Apr-14 23:31S 33°02' E 151°47'0 0.0
2016-Apr-14 22:31S 33°02' E 151°47'0 0.1
2016-Apr-14 21:31S 33°02' E 151°47'0 0.0
2016-Apr-14 20:29S 33°02' E 151°47'0 0.1
2016-Apr-14 19:32S 33°02' E 151°47'0 0.1
2016-Apr-14 18:33S 33°02' E 151°47'0 0.0
2016-Apr-14 17:31S 33°02' E 151°47'0 0.0
2016-Apr-14 16:31S 33°02' E 151°47'0 0.0
2016-Apr-14 15:33S 33°02' E 151°47'0 0.1
2016-Apr-14 14:31S 33°02' E 151°47'0 0.0
2016-Apr-14 13:31S 33°02' E 151°47'0 0.0
2016-Apr-14 12:31S 33°02' E 151°47'0 0.1
2016-Apr-14 11:31S 33°02' E 151°47'0 0.0
2016-Apr-14 10:32S 33°02' E 151°47'0 0.0
2016-Apr-14 09:31S 33°02' E 151°47'0 0.0
2016-Apr-14 08:32S 33°02' E 151°47'0 0.0
2016-Apr-14 07:31S 33°02' E 151°47'0 0.0
2016-Apr-14 06:31S 33°02' E 151°47'0 0.1
2016-Apr-14 05:28S 33°02' E 151°47'0 0.0
2016-Apr-14 04:31S 33°02' E 151°47'0 0.1
2016-Apr-14 03:31S 33°02' E 151°47'0 0.0
2016-Apr-14 02:28S 33°02' E 151°47'0 0.0
2016-Apr-14 01:31S 33°02' E 151°47'0 0.0
2016-Apr-14 00:25S 33°02' E 151°47'0 0.0
2016-Apr-13 23:31S 33°02' E 151°47'0 0.1
2016-Apr-13 22:33S 33°02' E 151°47'0 0.1
2016-Apr-13 21:33S 33°01' E 151°47'0 0.0
2016-Apr-13 20:30S 33°02' E 151°47'0 0.0
2016-Apr-13 19:33S 33°02' E 151°47'0 0.0
2016-Apr-13 18:33S 33°01' E 151°47'0 0.0
2016-Apr-13 17:28S 33°02' E 151°47'0 0.1
2016-Apr-13 16:31S 33°02' E 151°47'0 0.0
2016-Apr-13 15:28S 33°02' E 151°47'0 0.1
2016-Apr-13 14:31S 33°02' E 151°47'0 0.1
2016-Apr-13 13:31S 33°02' E 151°47'0 0.0
2016-Apr-13 12:32S 33°02' E 151°47'0 0.0
2016-Apr-13 11:32S 33°02' E 151°47'0 0.0
2016-Apr-13 10:32S 33°02' E 151°47'0 0.1
2016-Apr-13 09:32S 33°02' E 151°47'0 0.1
2016-Apr-13 08:32S 33°02' E 151°47'0 0.0
2016-Apr-13 07:31S 33°02' E 151°47'0 0.1
2016-Apr-13 06:31S 33°02' E 151°47'0 0.0
2016-Apr-13 05:31S 33°01' E 151°47'0 0.0
2016-Apr-13 04:31S 33°02' E 151°47'0 0.0
2016-Apr-13 03:31S 33°01' E 151°47'0 0.0
2016-Apr-13 02:32S 33°01' E 151°47'0 0.0
2016-Apr-13 01:32S 33°01' E 151°47'0 0.1
2016-Apr-13 00:32S 33°01' E 151°47'0 0.0
2016-Apr-12 23:31S 33°01' E 151°47'0 0.0
2016-Apr-12 22:32S 33°01' E 151°47'0 0.0
2016-Apr-12 21:28S 33°01' E 151°47'0 0.1
2016-Apr-12 20:31S 33°01' E 151°48'0 0.1
2016-Apr-12 19:31S 33°01' E 151°47'0 0.0
2016-Apr-12 18:32S 33°01' E 151°47'0 0.0
2016-Apr-12 17:32S 33°01' E 151°47'0 0.0
2016-Apr-12 16:32S 33°01' E 151°47'0 0.0
2016-Apr-12 15:31S 33°01' E 151°47'0 0.1
2016-Apr-12 14:32S 33°01' E 151°47'0 0.0
2016-Apr-12 13:32S 33°01' E 151°47'0 0.0
2016-Apr-12 12:31S 33°01' E 151°47'0 0.1
2016-Apr-12 11:31S 33°01' E 151°47'0 0.0
2016-Apr-12 10:31S 33°01' E 151°47'0 0.1
2016-Apr-12 09:31S 33°01' E 151°47'0 0.0
2016-Apr-12 08:31S 33°01' E 151°47'0 0.0
2016-Apr-12 07:31S 33°01' E 151°47'0 0.0
2016-Apr-12 06:31S 33°01' E 151°47'0 0.0
2016-Apr-12 05:31S 33°01' E 151°47'0 0.0
2016-Apr-12 04:31S 33°01' E 151°47'0 0.0
2016-Apr-12 03:31S 33°01' E 151°47'0 0.1
2016-Apr-12 02:31S 33°01' E 151°47'0 0.0
2016-Apr-12 01:31S 33°01' E 151°47'0 0.1
2016-Apr-12 00:31S 33°01' E 151°47'0 0.0
2016-Apr-11 23:31S 33°01' E 151°47'0 0.0
2016-Apr-11 22:31S 33°02' E 151°47'0 0.0
2016-Apr-11 21:31S 33°02' E 151°47'0 0.0
2016-Apr-11 20:31S 33°02' E 151°47'0 0.0
2016-Apr-11 19:28S 33°02' E 151°47'0 0.0
2016-Apr-11 18:28S 33°02' E 151°47'0 0.0
2016-Apr-11 17:31S 33°01' E 151°47'0 0.0
2016-Apr-11 16:32S 33°02' E 151°47'0 0.0
2016-Apr-11 15:23S 33°02' E 151°47'0 0.0
2016-Apr-11 14:28S 33°02' E 151°47'0 0.0
2016-Apr-11 13:31S 33°02' E 151°47'0 0.0
2016-Apr-11 12:31S 33°02' E 151°47'0 0.0
2016-Apr-11 11:31S 33°02' E 151°47'0 0.0
2016-Apr-11 10:31S 33°02' E 151°47'0 0.0
2016-Apr-11 09:32S 33°02' E 151°47'0 0.0
2016-Apr-11 08:32S 33°02' E 151°47'0 0.0
2016-Apr-11 07:32S 33°02' E 151°47'0 0.0
2016-Apr-11 06:32S 33°02' E 151°47'0 0.0
2016-Apr-11 05:31S 33°01' E 151°47'0 0.1
2016-Apr-11 04:31S 33°01' E 151°47'0 0.0
2016-Apr-11 03:28S 33°01' E 151°47'0 0.0
2016-Apr-11 02:31S 33°02' E 151°47'0 0.0
2016-Apr-11 01:31S 33°02' E 151°47'0 0.1
2016-Apr-11 00:31S 33°02' E 151°48'0 0.0
2016-Apr-10 23:31S 33°02' E 151°48'1 0.5
2016-Apr-10 22:33S 33°01' E 151°48'6 6.5
2016-Apr-10 21:33S 33°01' E 151°56'2 2.0
2016-Apr-10 20:31S 33°02' E 151°58'2 1.7
2016-Apr-10 19:32S 33°04' E 151°58'2 1.6
2016-Apr-10 18:33S 33°05' E 151°58'1 1.3
2016-Apr-10 17:33S 33°06' E 151°59'1 0.8
2016-Apr-10 16:33S 33°07' E 151°58'1 0.5
2016-Apr-10 15:32S 33°08' E 151°58'0 0.2
2016-Apr-10 14:32S 33°08' E 151°58'1 0.8
2016-Apr-10 13:32S 33°08' E 151°59'1 1.2
2016-Apr-10 12:34S 33°07' E 151°59'5 4.6
2016-Apr-10 11:32S 33°06' E 151°54'1 1.0
2016-Apr-10 10:28S 33°06' E 151°55'1 1.3
2016-Apr-10 09:33S 33°06' E 151°57'1 1.3
2016-Apr-10 08:32S 33°06' E 151°58'1 1.0
2016-Apr-10 07:32S 33°06' E 151°59'1 1.0
2016-Apr-10 06:32S 33°06' E 152°00'1 0.6
2016-Apr-10 05:32S 33°07' E 152°01'0 0.4
2016-Apr-10 04:32S 33°06' E 152°01'8 8.1
2016-Apr-10 03:34S 32°60' E 151°55'10 9.7
2016-Apr-10 02:34S 32°57' E 152°06'1211.8
2016-Apr-10 01:34S 32°49' E 152°17'1413.9
2016-Apr-10 00:33S 32°40' E 152°29'1714.4
2016-Apr-09 23:21S 32°28' E 152°44'4214.0
2016-Apr-09 20:19S 31°48' E 153°01'24616.6
2016-Apr-09 05:33S 27°48' E 154°01'  
Track history (hours):
 
Tides and Currents Weather Stations Pressure Air Temp Water Temp Dewpoint Dewpoint Depression Visibility Wind Speed Wind Dir Waves Ship Positions

Coral Topaz

Last reported at 2016-Apr-19 04:33 UTC. Time now 2016-May-01 09:58 UTC.
Position S 32°40' E 152°26'.
Warning: this ship's position is 12 days out of date.

Length 225 m; draft 12.7 m.

Type: Ship. MMSI: 372904000.

Date/timePositionNaut miles runAvg speedWind from/ knotsBaromVisibWave heightAir tempDewpointWater temp
2016-Apr-19 04:33S 32°40' E 152°26'1313.4
2016-Apr-19 03:33S 32°50' E 152°14'1312.7
2016-Apr-19 02:33S 32°57' E 152°02'1110.6
2016-Apr-19 01:33S 32°56' E 151°49'3 3.2
2016-Apr-19 00:33S 32°54' E 151°46'0 0.1
2016-Apr-18 23:33S 32°54' E 151°46'0 0.0
2016-Apr-18 22:33S 32°54' E 151°46'0 0.0
2016-Apr-18 21:30S 32°54' E 151°46'0 0.0
2016-Apr-18 20:33S 32°54' E 151°46'0 0.0
2016-Apr-18 19:30S 32°54' E 151°46'0 0.1
2016-Apr-18 18:30S 32°54' E 151°46'0 0.1
2016-Apr-18 17:33S 32°54' E 151°46'0 0.1
2016-Apr-18 16:33S 32°54' E 151°46'0 0.0
2016-Apr-18 15:30S 32°54' E 151°46'0 0.0
2016-Apr-18 14:24S 32°54' E 151°46'0 0.0
2016-Apr-18 13:12S 32°54' E 151°46'0 0.0
2016-Apr-18 12:27S 32°54' E 151°46'0 0.0
2016-Apr-18 11:27S 32°54' E 151°46'0 0.0
2016-Apr-18 10:33S 32°54' E 151°46'0 0.1
2016-Apr-18 09:33S 32°54' E 151°46'0 0.0
2016-Apr-18 08:24S 32°54' E 151°46'0 0.1
2016-Apr-18 07:33S 32°54' E 151°46'0 0.1
2016-Apr-18 06:33S 32°54' E 151°46'0 0.0
2016-Apr-18 05:33S 32°54' E 151°46'0 0.0
2016-Apr-18 04:33S 32°54' E 151°46'0 0.0
2016-Apr-18 03:30S 32°54' E 151°46'0 0.0
2016-Apr-18 02:27S 32°54' E 151°46'0 0.1
2016-Apr-18 01:33S 32°54' E 151°46'0 0.0
2016-Apr-18 00:33S 32°54' E 151°46'0 0.0
2016-Apr-17 23:31S 32°54' E 151°46'0 0.0
2016-Apr-17 22:31S 32°54' E 151°46'0 0.1
2016-Apr-17 21:33S 32°54' E 151°46'0 0.0
2016-Apr-17 20:33S 32°54' E 151°46'0 0.0
2016-Apr-17 19:31S 32°54' E 151°46'0 0.0
2016-Apr-17 18:31S 32°54' E 151°46'0 0.1
2016-Apr-17 17:33S 32°54' E 151°46'0 0.0
2016-Apr-17 16:33S 32°54' E 151°46'0 0.0
2016-Apr-17 15:33S 32°54' E 151°46'0 0.0
2016-Apr-17 14:34S 32°54' E 151°46'1 1.1
2016-Apr-17 13:34S 32°55' E 151°47'5 5.4
2016-Apr-17 12:34S 32°59' E 151°51'4 3.8
2016-Apr-17 11:31S 33°02' E 151°47'0 0.1
2016-Apr-17 10:32S 33°02' E 151°47'0 0.1
2016-Apr-17 09:32S 33°01' E 151°47'0 0.0
2016-Apr-17 08:31S 33°01' E 151°47'0 0.0
2016-Apr-17 07:31S 33°01' E 151°47'0 0.0
2016-Apr-17 06:31S 33°01' E 151°47'0 0.1
2016-Apr-17 05:32S 33°01' E 151°47'0 0.0
2016-Apr-17 04:32S 33°01' E 151°47'0 0.0
2016-Apr-17 03:31S 33°01' E 151°47'0 0.1
2016-Apr-17 02:31S 33°01' E 151°47'0 0.1
2016-Apr-17 01:31S 33°02' E 151°47'0 0.0
2016-Apr-17 00:28S 33°02' E 151°47'0 0.1
2016-Apr-16 23:31S 33°02' E 151°47'0 0.0
2016-Apr-16 22:31S 33°02' E 151°47'0 0.1
2016-Apr-16 21:31S 33°02' E 151°47'0 0.1
2016-Apr-16 20:28S 33°02' E 151°47'0 0.0
2016-Apr-16 19:31S 33°02' E 151°47'0 0.0
2016-Apr-16 18:32S 33°02' E 151°47'0 0.0
2016-Apr-16 17:31S 33°02' E 151°47'0 0.0
2016-Apr-16 16:32S 33°02' E 151°47'0 0.0
2016-Apr-16 15:32S 33°02' E 151°47'0 0.0
2016-Apr-16 14:31S 33°02' E 151°47'0 0.0
2016-Apr-16 13:33S 33°02' E 151°47'0 0.0
2016-Apr-16 12:31S 33°02' E 151°47'0 0.1
2016-Apr-16 11:31S 33°02' E 151°47'0 0.1
2016-Apr-16 10:32S 33°02' E 151°47'0 0.0
2016-Apr-16 09:28S 33°02' E 151°47'0 0.0
2016-Apr-16 08:28S 33°02' E 151°47'0 0.1
2016-Apr-16 07:33S 33°02' E 151°47'0 0.0
2016-Apr-16 06:33S 33°02' E 151°47'0 0.0
2016-Apr-16 05:33S 33°02' E 151°47'0 0.0
2016-Apr-16 04:33S 33°02' E 151°47'0 0.0
2016-Apr-16 03:33S 33°02' E 151°47'0 0.0
2016-Apr-16 02:33S 33°02' E 151°47'0 0.0
2016-Apr-16 01:33S 33°02' E 151°47'0 0.1
2016-Apr-16 00:33S 33°02' E 151°47'0 0.0
2016-Apr-15 23:33S 33°02' E 151°47'0 0.0
2016-Apr-15 22:33S 33°02' E 151°47'0 0.1
2016-Apr-15 21:33S 33°02' E 151°47'0 0.1
2016-Apr-15 20:31S 33°02' E 151°47'0 0.1
2016-Apr-15 19:33S 33°02' E 151°47'0 0.1
2016-Apr-15 18:33S 33°02' E 151°47'0 0.0
2016-Apr-15 17:31S 33°02' E 151°47'0 0.1
2016-Apr-15 16:33S 33°02' E 151°47'0 0.1
2016-Apr-15 15:29S 33°02' E 151°47'0 0.0
2016-Apr-15 14:32S 33°02' E 151°47'0 0.0
2016-Apr-15 13:29S 33°02' E 151°47'0 0.1
2016-Apr-15 12:33S 33°02' E 151°47'0 0.0
2016-Apr-15 11:29S 33°02' E 151°47'0 0.0
2016-Apr-15 10:31S 33°02' E 151°47'0 0.1
2016-Apr-15 09:32S 33°02' E 151°47'0 0.1
2016-Apr-15 08:32S 33°02' E 151°47'0 0.1
2016-Apr-15 07:31S 33°02' E 151°47'0 0.0
2016-Apr-15 06:32S 33°02' E 151°47'0 0.0
2016-Apr-15 05:31S 33°02' E 151°47'0 0.0
2016-Apr-15 04:31S 33°02' E 151°47'0 0.0
2016-Apr-15 03:31S 33°02' E 151°47'0 0.0
2016-Apr-15 02:31S 33°02' E 151°47'0 0.0
2016-Apr-15 01:31S 33°02' E 151°47'0 0.0
2016-Apr-15 00:31S 33°02' E 151°47'0 0.1
2016-Apr-14 23:31S 33°02' E 151°47'0 0.0
2016-Apr-14 22:31S 33°02' E 151°47'0 0.1
2016-Apr-14 21:31S 33°02' E 151°47'0 0.0
2016-Apr-14 20:29S 33°02' E 151°47'0 0.1
2016-Apr-14 19:32S 33°02' E 151°47'0 0.1
2016-Apr-14 18:33S 33°02' E 151°47'0 0.0
2016-Apr-14 17:31S 33°02' E 151°47'0 0.0
2016-Apr-14 16:31S 33°02' E 151°47'0 0.0
2016-Apr-14 15:33S 33°02' E 151°47'0 0.1
2016-Apr-14 14:31S 33°02' E 151°47'0 0.0
2016-Apr-14 13:31S 33°02' E 151°47'0 0.0
2016-Apr-14 12:31S 33°02' E 151°47'0 0.1
2016-Apr-14 11:31S 33°02' E 151°47'0 0.0
2016-Apr-14 10:32S 33°02' E 151°47'0 0.0
2016-Apr-14 09:31S 33°02' E 151°47'0 0.0
2016-Apr-14 08:32S 33°02' E 151°47'0 0.0
2016-Apr-14 07:31S 33°02' E 151°47'0 0.0
2016-Apr-14 06:31S 33°02' E 151°47'0 0.1
2016-Apr-14 05:28S 33°02' E 151°47'0 0.0
2016-Apr-14 04:31S 33°02' E 151°47'0 0.1
2016-Apr-14 03:31S 33°02' E 151°47'0 0.0
2016-Apr-14 02:28S 33°02' E 151°47'0 0.0
2016-Apr-14 01:31S 33°02' E 151°47'0 0.0
2016-Apr-14 00:25S 33°02' E 151°47'0 0.0
2016-Apr-13 23:31S 33°02' E 151°47'0 0.1
2016-Apr-13 22:33S 33°02' E 151°47'0 0.1
2016-Apr-13 21:33S 33°01' E 151°47'0 0.0
2016-Apr-13 20:30S 33°02' E 151°47'0 0.0
2016-Apr-13 19:33S 33°02' E 151°47'0 0.0
2016-Apr-13 18:33S 33°01' E 151°47'0 0.0
2016-Apr-13 17:28S 33°02' E 151°47'0 0.1
2016-Apr-13 16:31S 33°02' E 151°47'0 0.0
2016-Apr-13 15:28S 33°02' E 151°47'0 0.1
2016-Apr-13 14:31S 33°02' E 151°47'0 0.1
2016-Apr-13 13:31S 33°02' E 151°47'0 0.0
2016-Apr-13 12:32S 33°02' E 151°47'0 0.0
2016-Apr-13 11:32S 33°02' E 151°47'0 0.0
2016-Apr-13 10:32S 33°02' E 151°47'0 0.1
2016-Apr-13 09:32S 33°02' E 151°47'0 0.1
2016-Apr-13 08:32S 33°02' E 151°47'0 0.0
2016-Apr-13 07:31S 33°02' E 151°47'0 0.1
2016-Apr-13 06:31S 33°02' E 151°47'0 0.0
2016-Apr-13 05:31S 33°01' E 151°47'0 0.0
2016-Apr-13 04:31S 33°02' E 151°47'0 0.0
2016-Apr-13 03:31S 33°01' E 151°47'0 0.0
2016-Apr-13 02:32S 33°01' E 151°47'0 0.0
2016-Apr-13 01:32S 33°01' E 151°47'0 0.1
2016-Apr-13 00:32S 33°01' E 151°47'0 0.0
2016-Apr-12 23:31S 33°01' E 151°47'0 0.0
2016-Apr-12 22:32S 33°01' E 151°47'0 0.0
2016-Apr-12 21:28S 33°01' E 151°47'0 0.1
2016-Apr-12 20:31S 33°01' E 151°48'0 0.1
2016-Apr-12 19:31S 33°01' E 151°47'0 0.0
2016-Apr-12 18:32S 33°01' E 151°47'0 0.0
2016-Apr-12 17:32S 33°01' E 151°47'0 0.0
2016-Apr-12 16:32S 33°01' E 151°47'0 0.0
2016-Apr-12 15:31S 33°01' E 151°47'0 0.1
2016-Apr-12 14:32S 33°01' E 151°47'0 0.0
2016-Apr-12 13:32S 33°01' E 151°47'0 0.0
2016-Apr-12 12:31S 33°01' E 151°47'0 0.1
2016-Apr-12 11:31S 33°01' E 151°47'0 0.0
2016-Apr-12 10:31S 33°01' E 151°47'0 0.1
2016-Apr-12 09:31S 33°01' E 151°47'0 0.0
2016-Apr-12 08:31S 33°01' E 151°47'0 0.0
2016-Apr-12 07:31S 33°01' E 151°47'0 0.0
2016-Apr-12 06:31S 33°01' E 151°47'0 0.0
2016-Apr-12 05:31S 33°01' E 151°47'0 0.0
2016-Apr-12 04:31S 33°01' E 151°47'0 0.0
2016-Apr-12 03:31S 33°01' E 151°47'0 0.1
2016-Apr-12 02:31S 33°01' E 151°47'0 0.0
2016-Apr-12 01:31S 33°01' E 151°47'0 0.1
2016-Apr-12 00:31S 33°01' E 151°47'0 0.0
2016-Apr-11 23:31S 33°01' E 151°47'0 0.0
2016-Apr-11 22:31S 33°02' E 151°47'0 0.0
2016-Apr-11 21:31S 33°02' E 151°47'0 0.0
2016-Apr-11 20:31S 33°02' E 151°47'0 0.0
2016-Apr-11 19:28S 33°02' E 151°47'0 0.0
2016-Apr-11 18:28S 33°02' E 151°47'0 0.0
2016-Apr-11 17:31S 33°01' E 151°47'0 0.0
2016-Apr-11 16:32S 33°02' E 151°47'0 0.0
2016-Apr-11 15:23S 33°02' E 151°47'0 0.0
2016-Apr-11 14:28S 33°02' E 151°47'0 0.0
2016-Apr-11 13:31S 33°02' E 151°47'0 0.0
2016-Apr-11 12:31S 33°02' E 151°47'0 0.0
2016-Apr-11 11:31S 33°02' E 151°47'0 0.0
2016-Apr-11 10:31S 33°02' E 151°47'0 0.0
2016-Apr-11 09:32S 33°02' E 151°47'0 0.0
2016-Apr-11 08:32S 33°02' E 151°47'0 0.0
2016-Apr-11 07:32S 33°02' E 151°47'0 0.0
2016-Apr-11 06:32S 33°02' E 151°47'0 0.0
2016-Apr-11 05:31S 33°01' E 151°47'0 0.1
2016-Apr-11 04:31S 33°01' E 151°47'0 0.0
2016-Apr-11 03:28S 33°01' E 151°47'0 0.0
2016-Apr-11 02:31S 33°02' E 151°47'0 0.0
2016-Apr-11 01:31S 33°02' E 151°47'0 0.1
2016-Apr-11 00:31S 33°02' E 151°48'0 0.0
2016-Apr-10 23:31S 33°02' E 151°48'1 0.5
2016-Apr-10 22:33S 33°01' E 151°48'6 6.5
2016-Apr-10 21:33S 33°01' E 151°56'2 2.0
2016-Apr-10 20:31S 33°02' E 151°58'2 1.7
2016-Apr-10 19:32S 33°04' E 151°58'2 1.6
2016-Apr-10 18:33S 33°05' E 151°58'1 1.3
2016-Apr-10 17:33S 33°06' E 151°59'1 0.8
2016-Apr-10 16:33S 33°07' E 151°58'1 0.5
2016-Apr-10 15:32S 33°08' E 151°58'0 0.2
2016-Apr-10 14:32S 33°08' E 151°58'1 0.8
2016-Apr-10 13:32S 33°08' E 151°59'1 1.2
2016-Apr-10 12:34S 33°07' E 151°59'5 4.6
2016-Apr-10 11:32S 33°06' E 151°54'1 1.0
2016-Apr-10 10:28S 33°06' E 151°55'1 1.3
2016-Apr-10 09:33S 33°06' E 151°57'1 1.3
2016-Apr-10 08:32S 33°06' E 151°58'1 1.0
2016-Apr-10 07:32S 33°06' E 151°59'1 1.0
2016-Apr-10 06:32S 33°06' E 152°00'1 0.6
2016-Apr-10 05:32S 33°07' E 152°01'0 0.4
2016-Apr-10 04:32S 33°06' E 152°01'8 8.1
2016-Apr-10 03:34S 32°60' E 151°55'10 9.7
2016-Apr-10 02:34S 32°57' E 152°06'1211.8
2016-Apr-10 01:34S 32°49' E 152°17'1413.9
2016-Apr-10 00:33S 32°40' E 152°29'1714.4
2016-Apr-09 23:21S 32°28' E 152°44'4214.0
2016-Apr-09 20:19S 31°48' E 153°01'24616.6
2016-Apr-09 05:33S 27°48' E 154°01'  

Dump ship's entire track history